Latest Coastal Weather Observations for Onslow Airport

IDW60701

Issued at 2:15 am WST Wednesday 22 October 2014 (issued every 10 minutes, with the page automatically refreshed every 10 minutes)

About coastal observations | Map of coastal stations | Coastal observations for WA | Marine services | Other Formats
Station Details ID: 005017 Name: ONSLOW AIRPORT Lat: -21.67 Lon: 115.11 Height: 10.5 m
Data from the previous 72 hours. | See also: Recent months at Onslow Airport
Date/Time
WST
Temp

°C
Wind Pressure Rain
since 9am
mm
Weather Cloud Vis
km
Sea
Height
m
Swell
Dir
 
Speed
knots
Gust
knots
hPa Trend Height
m
Period
s
Dir
22/02:00am 20.2 S 11 14 1016.0 - 0.0 - - - - - - -
22/01:30am 20.7 S 14 18 1016.0 - 0.0 - - - - - - -
22/01:00am 21.0 SSW 15 19 1016.2 - 0.0 - - - - - - -
22/12:30am 21.3 SSW 15 18 1016.3 - 0.0 - - - - - - -
22/12:00am 21.7 SSW 14 19 1016.3 - 0.0 - - - - - - -
 
Date/Time
WST
Temp

°C
Wind Pressure Rain
since 9am
mm
Weather Cloud Vis
km
Sea
Height
m
Swell
Dir
 
Speed
knots
Gust
knots
hPa Trend Height
m
Period
s
Dir
21/11:30pm 22.2 SSW 15 20 1016.7 - 0.0 - - - - - - -
21/11:00pm 22.6 SW 15 19 1017.0 - 0.0 - - - - - - -
21/10:30pm 23.3 SW 14 17 1017.3 - 0.0 - - - - - - -
21/10:00pm 23.6 SW 12 14 1017.1 - 0.0 - - - - - - -
21/09:30pm 23.5 WSW 9 11 1017.1 - 0.0 - - - - - - -
21/09:00pm 23.6 W 9 11 1017.1 - 0.0 - - - - - - -
21/08:30pm 23.9 W 9 12 1016.9 - 0.0 - - - - - - -
21/08:00pm 24.0 W 10 13 1016.7 - 0.0 - - - - - - -
21/07:30pm 24.1 W 11 13 1016.6 - 0.0 - - - - - - -
21/07:00pm 24.2 W 12 15 1016.4 - 0.0 - - - - - - -
21/06:30pm 24.3 WNW 12 15 1016.1 - 0.0 - - - - - - -
21/06:00pm 24.9 WNW 15 18 1015.6 - 0.0 - - - - - - -
21/05:30pm 25.7 WNW 14 18 1015.5 - 0.0 - - - - - - -
21/05:00pm 25.8 WNW 15 19 1015.2 - 0.0 - - - - - - -
21/04:30pm 26.6 WNW 15 18 1015.2 - 0.0 - - - - - - -
21/04:00pm 27.8 WNW 14 17 1015.3 - 0.0 - - - - - - -
21/03:30pm 28.5 WNW 16 19 1015.1 - 0.0 - - - - - - -
21/03:00pm 29.3 WNW 14 18 1015.0 - 0.0 - - - - - - -
21/02:30pm 28.9 WNW 15 19 1015.3 - 0.0 - - - - - - -
21/02:00pm 28.2 WNW 18 21 1015.7 - 0.0 - - - - - - -
21/01:30pm 29.2 WNW 17 20 1015.9 - 0.0 - - - - - - -
21/01:00pm 28.0 WNW 15 17 1016.1 - 0.0 - - - - - - -
21/12:30pm 27.6 WNW 16 18 1016.5 - 0.0 - - - - - - -
21/12:00pm 28.0 WNW 15 18 1016.9 - 0.0 - - - - - - -
21/11:30am 28.3 WNW 13 17 1017.0 - 0.0 - - - - - - -
21/11:00am 28.1 WNW 13 16 1017.4 - 0.0 - - - - - - -
21/10:30am 29.9 WSW 4 11 1017.6 - 0.0 - - - - - - -
21/10:00am 29.1 SSE 4 6 1017.8 - 0.0 - - - - - - -
21/09:30am 27.3 SSE 5 8 1017.9 - 0.0 - - - - - - -
21/09:00am 25.6 S 7 10 1018.0 - 0.0 - - - - - - -
21/08:30am 23.9 SSW 8 11 1018.0 - 0.0 - - - - - - -
21/08:00am 23.0 SSW 10 12 1017.9 - 0.0 - - - - - - -
21/07:30am 21.5 SSW 12 15 1017.7 - 0.0 - - - - - - -
21/07:00am 20.0 SSW 11 16 1017.6 - 0.0 - - - - - - -
21/06:30am 18.7 SW 11 14 1017.4 - 0.0 - - - - - - -
21/06:00am 18.0 SW 12 14 1017.0 - 0.0 - - - - - - -
21/05:30am 18.0 SW 11 14 1016.8 - 0.0 - - - - - - -
21/05:00am 18.2 SW 11 13 1016.6 - 0.0 - - - - - - -
21/04:30am 18.2 SW 10 12 1016.6 - 0.0 - - - - - - -
21/04:00am 18.4 SW 10 12 1016.6 - 0.0 - - - - - - -
21/03:30am 18.7 WSW 10 13 1016.5 - 0.0 - - - - - - -
21/03:00am 19.0 WSW 10 13 1016.4 - 0.0 - - - - - - -
21/02:30am 19.3 SW 11 14 1016.1 - 0.0 - - - - - - -
21/02:00am 19.5 WSW 10 13 1016.3 - 0.0 - - - - - - -
21/01:30am 19.3 WSW 7 10 1016.4 - 0.0 - - - - - - -
21/01:00am 19.4 WSW 8 9 1016.5 - 0.0 - - - - - - -
21/12:30am 19.9 WSW 8 11 1016.7 - 0.0 - - - - - - -
21/12:00am 20.5 WSW 8 11 1016.8 - 0.0 - - - - - - -
 
Date/Time
WST
Temp

°C
Wind Pressure Rain
since 9am
mm
Weather Cloud Vis
km
Sea
Height
m
Swell
Dir
 
Speed
knots
Gust
knots
hPa Trend Height
m
Period
s
Dir
20/11:30pm 20.7 WSW 9 12 1017.2 - 0.0 - - - - - - -
20/11:00pm 21.3 WSW 10 13 1017.2 - 0.0 - - - - - - -
20/10:30pm 21.6 W 9 12 1017.2 - 0.0 - - - - - - -
20/10:00pm 21.7 W 9 11 1017.1 - 0.0 - - - - - - -
20/09:30pm 22.5 W 10 14 1017.1 - 0.0 - - - - - - -
20/09:00pm 22.8 W 11 14 1016.8 - 0.0 - - - - - - -
20/08:30pm 22.9 W 10 13 1016.5 - 0.0 - - - - - - -
20/08:00pm 23.4 W 11 15 1016.3 - 0.0 - - - - - - -
20/07:30pm 23.5 W 13 18 1015.9 - 0.0 - - - - - - -
20/07:00pm 23.3 W 15 19 1015.3 - 0.0 - - - - - - -
20/06:30pm 23.5 W 17 21 1014.9 - 0.0 - - - - - - -
20/06:00pm 24.0 W 18 24 1014.6 - 0.0 - - - - - - -
20/05:30pm 24.8 W 19 24 1014.3 - 0.0 - - - - - - -
20/05:00pm 25.2 W 21 25 1014.0 - 0.0 - - - - - - -
20/04:30pm 25.9 W 22 27 1013.9 - 0.0 - - - - - - -
20/04:00pm 28.5 W 22 27 1013.8 - 0.0 - - - - - - -
20/03:30pm 29.1 W 21 27 1013.8 - 0.0 - - - - - - -
20/03:00pm 28.4 W 21 26 1014.1 - 0.0 - - - - - - -
20/02:30pm 27.3 W 20 25 1014.3 - 0.0 - - - - - - -
20/02:00pm 26.9 W 19 22 1014.7 - 0.0 - - - - - - -
20/01:30pm 28.4 W 16 20 1014.9 - 0.0 - - - - - - -
20/01:00pm 28.3 WNW 14 18 1015.3 - 0.0 - - - - - - -
20/12:30pm 28.7 NW 13 17 1015.7 - 0.0 - - - - - - -
20/12:00pm 29.0 SSE 7 11 1016.2 - 0.0 - - - - - - -
20/11:30am 28.4 SSE 7 10 1016.6 - 0.0 - - - - - - -
20/11:00am 28.2 S 8 13 1017.1 - 0.0 - - - - - - -
20/10:30am 27.2 S 9 15 1017.4 - 0.0 - - - - - - -
20/10:00am 26.3 S 10 13 1017.9 - 0.0 - - - - - - -
20/09:30am 25.7 S 11 16 1018.1 - 0.0 - - - - - - -
20/09:00am 24.4 S 12 16 1018.2 - 0.0 - - - - - - -
20/08:30am 23.5 S 13 17 1018.4 - 0.0 - - - - - - -
20/08:00am 22.2 S 13 16 1018.4 - 0.0 - - - - - - -
20/07:30am 21.4 S 12 15 1018.2 - 0.0 - - - - - - -
20/07:00am 19.9 S 13 17 1017.8 - 0.0 - - - - - - -
20/06:30am 18.5 S 11 16 1017.6 - 0.0 - - - - - - -
20/06:00am 17.5 SSW 11 14 1017.2 - 0.0 - - - - - - -
20/05:30am 17.1 SSW 9 11 1016.9 - 0.0 - - - - - - -
20/05:00am 17.4 SSW 8 11 1016.5 - 0.0 - - - - - - -
20/04:30am 17.5 SSW 7 9 1016.2 - 0.0 - - - - - - -
20/04:00am 17.8 SSW 9 12 1015.9 - 0.0 - - - - - - -
20/03:30am 18.2 SSW 9 11 1015.6 - 0.0 - - - - - - -
20/03:00am 18.4 SSW 10 12 1015.5 - 0.0 - - - - - - -
20/02:30am 18.8 SSW 11 14 1015.6 - 0.0 - - - - - - -
20/02:00am 19.0 SSW 10 13 1015.9 - 0.0 - - - - - - -
20/01:30am 19.3 SSW 12 14 1015.9 - 0.0 - - - - - - -
20/01:00am 19.3 SSW 10 13 1016.1 - 0.0 - - - - - - -
20/12:30am 19.7 SSW 11 14 1016.3 - 0.0 - - - - - - -
20/12:00am 20.1 SSW 12 16 1016.3 - 0.0 - - - - - - -
 
Date/Time
WST
Temp

°C
Wind Pressure Rain
since 9am
mm
Weather Cloud Vis
km
Sea
Height
m
Swell
Dir
 
Speed
knots
Gust
knots
hPa Trend Height
m
Period
s
Dir
19/11:30pm 20.4 SSW 14 18 1016.4 - 0.0 - - - - - - -
19/11:00pm 20.8 SW 15 20 1016.7 - 0.0 - - - - - - -
19/10:30pm 21.3 SW 15 21 1016.8 - 0.0 - - - - - - -
19/10:00pm 21.5 SW 15 19 1016.6 - 0.0 - - - - - - -
19/09:30pm 22.1 SW 16 21 1016.3 - 0.0 - - - - - - -
19/09:00pm 22.8 SW 15 19 1015.9 - 0.0 - - - - - - -
19/08:30pm 23.1 WSW 13 18 1015.5 - 0.0 - - - - - - -
19/08:00pm 22.4 WSW 10 12 1015.3 - 0.0 - - - - - - -
19/07:30pm 22.8 W 11 14 1015.1 - 0.0 - - - - - - -
19/07:00pm 23.0 W 13 17 1014.8 - 0.0 - - - - - - -
19/06:30pm 23.2 W 13 17 1014.6 - 0.0 - - - - - - -
19/06:00pm 24.1 W 16 19 1014.4 - 0.0 - - - - - - -
19/05:30pm 25.1 W 17 21 1014.0 - 0.0 - - - - - - -
19/05:00pm 25.8 W 18 24 1013.8 - 0.0 - - - - - - -
19/04:30pm 26.1 W 19 24 1013.7 - 0.0 - - - - - - -
19/04:00pm 26.2 W 21 26 1013.6 - 0.0 - - - - - - -
19/03:30pm 26.6 WNW 21 26 1013.6 - 0.0 - - - - - - -
19/03:00pm 26.6 W 21 27 1013.6 - 0.0 - - - - - - -
19/02:30pm 27.7 WNW 20 26 1013.7 - 0.0 - - - - - - -
19/02:00pm 27.0 WNW 21 27 1014.0 - 0.0 - - - - - - -
19/01:30pm 27.6 WNW 21 26 1014.3 - 0.0 - - - - - - -
19/01:00pm 27.6 W 22 26 1014.5 - 0.0 - - - - - - -
19/12:30pm 27.2 WNW 19 25 1015.0 - 0.0 - - - - - - -
19/12:00pm 27.2 WNW 17 23 1015.3 - 0.0 - - - - - - -
19/11:30am 27.7 WNW 15 18 1015.5 - 0.0 - - - - - - -
19/11:00am 27.6 WNW 13 17 1015.8 - 0.0 - - - - - - -
19/10:30am 27.2 SW 9 13 1016.2 - 0.0 - - - - - - -
19/10:00am 26.1 SW 10 15 1016.4 - 0.0 - - - - - - -
19/09:30am 26.0 SSW 12 16 1016.8 - 0.0 - - - - - - -
19/09:00am 25.0 SSW 11 16 1017.0 - 0.0 - - - - - - -
19/08:30am 23.9 SSW 11 15 1016.9 - 0.0 - - - - - - -
19/08:00am 22.9 SSW 11 13 1016.9 - 0.0 - - - - - - -
19/07:30am 22.4 SSE 9 11 1016.8 - 0.0 - - - - - - -
19/07:00am 21.4 S 9 11 1016.5 - 0.0 - - - - - - -
19/06:30am 20.6 S 9 11 1016.2 - 0.0 - - - - - - -
19/06:00am 19.5 S 9 11 1015.6 - 0.0 - - - - - - -
19/05:30am 19.3 S 9 11 1015.3 - 0.0 - - - - - - -
19/05:00am 19.7 SSW 7 11 1014.9 - 0.0 - - - - - - -
19/04:30am 20.0 SSW 10 13 1014.6 - 0.0 - - - - - - -
19/04:00am 20.2 SSW 10 12 1014.4 - 0.0 - - - - - - -
19/03:30am 20.3 SSW 9 12 1014.2 - 0.0 - - - - - - -
19/03:00am 20.7 SSW 10 12 1014.1 - 0.0 - - - - - - -
19/02:30am 21.1 SW 11 13 1014.1 - 0.0 - - - - - - -

Other Formats:

Comma delimited format used in spreadsheet applications
http://www.bom.gov.au/fwo/IDW60701/IDW60701.95305.axf

JavaScript Object Notation format (JSON) in row-major order
http://www.bom.gov.au/fwo/IDW60701/IDW60701.95305.json